createdAt,value
2019-05-18T00:01:04.275Z,0
2019-05-18T00:06:36.819Z,0
2019-05-18T00:12:09.437Z,0
2019-05-18T00:17:41.964Z,0
2019-05-18T00:23:14.583Z,0
2019-05-18T00:28:47.129Z,0
2019-05-18T00:34:19.765Z,0
2019-05-18T00:39:52.278Z,0
2019-05-18T00:45:24.879Z,0
2019-05-18T00:50:57.398Z,0
2019-05-18T00:56:29.978Z,0
2019-05-18T01:02:02.581Z,0
2019-05-18T01:07:35.081Z,0
2019-05-18T01:13:07.635Z,0
2019-05-18T01:18:40.177Z,0
2019-05-18T01:24:12.781Z,0
2019-05-18T01:29:45.318Z,0
2019-05-18T01:35:17.837Z,0
2019-05-18T01:40:50.680Z,5.9
2019-05-18T01:46:23.216Z,0
2019-05-18T01:51:55.725Z,0
2019-05-18T01:57:28.141Z,0
2019-05-18T02:03:00.643Z,0
2019-05-18T02:08:33.930Z,9.6
2019-05-18T02:14:07.253Z,8.4
2019-05-18T02:19:40.568Z,7.2
2019-05-18T02:25:14.149Z,5.9
2019-05-18T02:30:46.093Z,0
2019-05-18T02:36:18.571Z,0
2019-05-18T02:41:51.087Z,0
2019-05-18T02:47:23.534Z,0
2019-05-18T02:52:56.079Z,0
2019-05-18T02:58:28.573Z,0
2019-05-18T03:04:01.017Z,0
2019-05-18T03:09:33.538Z,0
2019-05-18T03:15:06.125Z,0
2019-05-18T03:20:38.510Z,0
2019-05-18T03:26:11.034Z,0
2019-05-18T03:31:43.601Z,0
2019-05-18T03:37:16.036Z,0
2019-05-18T03:42:48.510Z,0
2019-05-18T03:48:21.034Z,0
2019-05-18T03:53:53.570Z,0
2019-05-18T03:59:26.047Z,0
2019-05-18T04:04:58.527Z,0
2019-05-18T04:10:31.754Z,7.2
2019-05-18T04:16:05.084Z,5.9
2019-05-18T04:21:39.201Z,7.2
2019-05-18T04:27:10.820Z,0
2019-05-18T04:32:43.298Z,0
2019-05-18T04:38:15.896Z,0
2019-05-18T04:43:48.467Z,0
2019-05-18T04:49:20.961Z,0
2019-05-18T04:54:53.585Z,0
2019-05-18T05:00:26.178Z,0
2019-05-18T05:05:58.792Z,0
2019-05-18T05:11:31.385Z,0
2019-05-18T05:17:04.091Z,0
2019-05-18T05:22:36.799Z,4.8
2019-05-18T05:28:09.506Z,0
2019-05-18T05:33:42.112Z,0
2019-05-18T05:39:14.785Z,0
2019-05-18T05:44:48.014Z,7.2
2019-05-18T05:50:34.428Z,8.4
2019-05-18T05:55:55.112Z,7.2
2019-05-18T06:01:28.544Z,9.6
2019-05-18T06:07:02.211Z,8.4
2019-05-18T06:12:35.675Z,7.2
2019-05-18T06:18:08.894Z,5.9
2019-05-18T06:23:42.494Z,9.6
2019-05-18T06:29:16.182Z,8.4
2019-05-18T06:34:49.894Z,9.6
2019-05-18T06:40:23.598Z,10.7
2019-05-18T06:45:57.377Z,11.9
2019-05-18T06:51:31.103Z,13.2
2019-05-18T06:57:04.959Z,9.6
2019-05-18T07:02:38.894Z,11.9
2019-05-18T07:08:12.787Z,9.6
2019-05-18T07:13:46.697Z,9.6
2019-05-18T07:19:20.103Z,5.9
2019-05-18T07:24:53.373Z,4.8
2019-05-18T07:30:26.789Z,4.8
2019-05-18T07:36:00.634Z,8.4
2019-05-18T07:41:45.776Z,4.8
2019-05-18T07:47:07.810Z,7.2
2019-05-18T07:52:41.554Z,5.9
2019-05-18T07:58:15.574Z,7.2
2019-05-18T08:03:49.568Z,5.9
2019-05-18T08:09:23.792Z,8.4
2019-05-18T08:14:57.316Z,5.9
2019-05-18T08:20:32.256Z,7.2
2019-05-18T08:26:05.030Z,7.2
2019-05-18T08:31:38.863Z,5.9
2019-05-18T08:37:12.877Z,7.2
2019-05-18T08:42:47.371Z,7.2
2019-05-18T08:48:21.121Z,0
2019-05-18T08:53:55.138Z,5.9
2019-05-18T08:59:29.898Z,8.4
2019-05-18T09:05:05.039Z,7.2
2019-05-18T09:10:39.450Z,11.9
2019-05-18T09:16:13.882Z,11.9
2019-05-18T09:21:48.633Z,9.6
2019-05-18T09:27:23.514Z,8.4
2019-05-18T09:32:57.954Z,10.7
2019-05-18T09:38:33.475Z,10.7
2019-05-18T09:44:07.340Z,15.6
2019-05-18T09:49:42.381Z,15.6
2019-05-18T10:12:04.631Z,14.4
2019-05-18T10:28:50.894Z,14.4
2019-05-18T11:24:46.729Z,13.2
2019-05-18T11:30:21.964Z,11.9
2019-05-18T12:15:09.203Z,9.6
2019-05-18T13:05:30.245Z,11.9
2019-05-18T13:27:51.113Z,0
2019-05-18T13:33:25.427Z,0
2019-05-18T13:38:59.982Z,0
2019-05-18T13:55:45.651Z,0
2019-05-18T14:18:05.795Z,0
2019-05-18T14:23:39.809Z,0
2019-05-18T14:29:14.340Z,13.2
2019-05-18T14:34:49.226Z,13.2
2019-05-18T14:40:23.771Z,10.7
2019-05-18T14:45:58.524Z,10.7
2019-05-18T14:51:33.391Z,11.9
2019-05-18T14:57:08.114Z,11.9
2019-05-18T15:02:42.771Z,8.4
2019-05-18T15:08:16.846Z,7.2
2019-05-18T15:13:50.986Z,8.4
2019-05-18T15:19:24.893Z,0
2019-05-18T15:24:58.864Z,0
2019-05-18T15:30:32.837Z,0
2019-05-18T15:36:06.850Z,5.9
2019-05-18T15:41:40.961Z,5.9
2019-05-18T15:47:15.563Z,10.7
2019-05-18T15:52:49.888Z,9.6
2019-05-18T15:58:24.223Z,13.2
2019-05-18T16:09:34.527Z,11.9
2019-05-18T16:15:08.790Z,10.7
2019-05-18T16:20:42.741Z,11.9
2019-05-18T16:26:21.364Z,15.6
2019-05-18T16:31:51.217Z,11.9
2019-05-18T16:37:25.306Z,11.9
2019-05-18T16:42:59.843Z,9.6
2019-05-18T16:48:34.373Z,11.9
2019-05-18T16:54:08.766Z,11.9
2019-05-18T16:59:42.320Z,0
2019-05-18T17:05:15.912Z,0
2019-05-18T17:10:49.447Z,0
2019-05-18T17:16:22.974Z,0
2019-05-18T17:21:56.536Z,9.6
2019-05-18T17:27:30.558Z,10.7
2019-05-18T17:38:38.856Z,10.7
2019-05-18T17:44:12.806Z,4.8
2019-05-18T18:00:54.921Z,0
2019-05-18T18:06:28.393Z,8.4
2019-05-18T18:12:01.633Z,0
2019-05-18T18:17:34.863Z,0
2019-05-18T18:23:08.073Z,0
2019-05-18T18:28:41.237Z,0
2019-05-18T18:34:14.482Z,0
2019-05-18T18:39:47.598Z,0
2019-05-18T18:45:20.695Z,0
2019-05-18T18:50:53.862Z,0
2019-05-18T18:56:26.890Z,0
2019-05-18T19:02:00.667Z,0
2019-05-18T19:07:32.867Z,0
2019-05-18T19:13:05.990Z,0
2019-05-18T19:18:38.838Z,0
2019-05-18T19:24:11.794Z,0
2019-05-18T19:29:44.698Z,0
2019-05-18T19:35:17.826Z,0
2019-05-18T19:40:51.764Z,0
2019-05-18T19:46:24.634Z,0
2019-05-18T19:51:57.536Z,0
2019-05-18T19:57:30.450Z,0
2019-05-18T20:03:03.301Z,0
2019-05-18T20:08:36.271Z,0
2019-05-18T20:14:09.249Z,0
2019-05-18T20:19:42.134Z,0
2019-05-18T20:25:15.349Z,0
2019-05-18T20:30:48.319Z,0
2019-05-18T20:36:21.106Z,0
2019-05-18T20:41:54.048Z,0
2019-05-18T20:47:27.035Z,0
2019-05-18T20:52:59.786Z,0
2019-05-18T20:58:39.760Z,0
2019-05-18T21:04:05.634Z,0
2019-05-18T21:09:38.612Z,0
2019-05-18T21:15:04.859Z,0
2019-05-18T21:20:37.633Z,0
2019-05-18T21:26:03.117Z,0
2019-05-18T21:31:28.142Z,0
2019-05-18T21:37:00.869Z,0
2019-05-18T21:42:28.036Z,0
2019-05-18T21:48:00.746Z,0
2019-05-18T21:53:33.316Z,0
2019-05-18T21:59:11.479Z,0
2019-05-18T22:04:38.729Z,0
2019-05-18T22:10:24.723Z,0
2019-05-18T22:15:44.169Z,0
2019-05-18T22:21:16.821Z,0
2019-05-18T22:26:49.527Z,0
2019-05-18T22:32:22.502Z,0
2019-05-18T22:37:54.961Z,0
2019-05-18T22:43:27.616Z,0
2019-05-18T22:49:00.261Z,0
2019-05-18T22:54:32.992Z,0
2019-05-18T23:00:05.685Z,0
2019-05-18T23:05:38.312Z,0
2019-05-18T23:11:10.974Z,0
2019-05-18T23:16:43.668Z,0
2019-05-18T23:22:16.383Z,0
2019-05-18T23:27:49.057Z,0
2019-05-18T23:33:21.769Z,0
2019-05-18T23:38:54.548Z,0
2019-05-18T23:44:27.181Z,0
2019-05-18T23:49:59.875Z,0
2019-05-18T23:55:32.591Z,0
